Time;durP1;ratioP1;P1;durP2;ratioP2;P2;SDS_P1;SDS_P2;PMS_P1;PMS_P2;Temp;Humidity;BMP_temperature;BMP_pressure;BME280_temperature;BME280_humidity;BME280_pressure;Samples;Min_cycle;Max_cycle;Signal;HPM_P1;HPM_P2
2021/01/20 00:00:59;;;;;;;55.28;24.92;;;;;;;;;;1791609;80;21135;-85
2021/01/20 00:03:27;;;;;;;64.03;23.07;;;;;;;;;;1795562;80;21286;-85
2021/01/20 00:05:56;;;;;;;54.48;24.20;;;;;;;;;;1795412;80;21121;-85
2021/01/20 00:08:22;;;;;;;56.70;23.83;;;;;;;;;;1757365;82;21141;-86
2021/01/20 00:10:49;;;;;;;57.90;24.12;;;;;;;;;;1726180;83;21161;-85
2021/01/20 00:13:15;;;;;;;64.97;25.68;;;;;;;;;;1750091;82;21279;-85
2021/01/20 00:15:42;;;;;;;64.53;25.40;;;;;;;;;;1755741;82;21604;-86
2021/01/20 00:18:09;;;;;;;62.75;26.15;;;;;;;;;;1748833;81;21188;-81
2021/01/20 00:20:35;;;;;;;65.12;26.65;;;;;;;;;;1780509;80;21562;-81
2021/01/20 00:23:01;;;;;;;65.70;25.50;;;;;;;;;;1745106;82;21143;-81
2021/01/20 00:25:27;;;;;;;58.38;26.15;;;;;;;;;;1733589;83;21160;-83
2021/01/20 00:27:54;;;;;;;59.45;25.85;;;;;;;;;;1733658;83;21128;-83
2021/01/20 00:30:23;;;;;;;49.98;21.65;;;;;;;;;;1733732;83;21572;-83
2021/01/20 00:32:50;;;;;;;58.63;23.50;;;;;;;;;;1746105;81;21129;-81
2021/01/20 00:35:17;;;;;;;58.35;24.60;;;;;;;;;;1784118;79;21161;-82
2021/01/20 00:37:43;;;;;;;54.58;23.20;;;;;;;;;;1780607;80;21601;-82
2021/01/20 00:40:09;;;;;;;57.20;22.93;;;;;;;;;;1745551;82;21163;-82
2021/01/20 00:42:36;;;;;;;55.63;23.40;;;;;;;;;;1728019;82;21572;-82
2021/01/20 00:45:03;;;;;;;58.55;26.02;;;;;;;;;;1712957;83;21198;-82
2021/01/20 00:47:29;;;;;;;59.05;24.50;;;;;;;;;;1715593;82;21145;-81
2021/01/20 00:49:55;;;;;;;58.38;23.35;;;;;;;;;;1713027;84;21615;-80
2021/01/20 00:52:21;;;;;;;58.15;24.40;;;;;;;;;;1712818;84;21199;-81
2021/01/20 00:54:47;;;;;;;64.70;26.90;;;;;;;;;;1712730;84;21158;-81
2021/01/20 00:57:14;;;;;;;63.48;24.45;;;;;;;;;;1712997;84;21160;-81
2021/01/20 00:59:42;;;;;;;55.55;24.05;;;;;;;;;;1741633;82;21164;-81
2021/01/20 01:02:10;;;;;;;49.60;20.77;;;;;;;;;;1742198;82;21141;-79
2021/01/20 01:04:38;;;;;;;61.00;24.40;;;;;;;;;;1742371;82;21291;-80
2021/01/20 01:07:05;;;;;;;53.80;21.00;;;;;;;;;;1742348;82;21172;-81
2021/01/20 01:09:34;;;;;;;63.78;24.80;;;;;;;;;;1719495;82;21624;-80
2021/01/20 01:12:05;;;;;;;48.85;20.20;;;;;;;;;;1708846;84;21179;-82
2021/01/20 01:14:52;;;;;;;60.92;23.42;;;;;;;;;;1712925;84;21748;-81
2021/01/20 01:17:07;;;;;;;51.55;24.25;;;;;;;;;;1718893;82;21116;-77
2021/01/20 01:19:33;;;;;;;55.55;22.40;;;;;;;;;;1729686;82;21552;-79
2021/01/20 01:22:00;;;;;;;56.83;24.45;;;;;;;;;;1738767;82;21678;-76
2021/01/20 01:24:26;;;;;;;52.58;23.00;;;;;;;;;;1735508;82;21143;-82
2021/01/20 01:26:52;;;;;;;59.40;23.40;;;;;;;;;;1723022;82;21639;-80
2021/01/20 01:29:19;;;;;;;54.40;22.40;;;;;;;;;;1739391;82;21156;-81
2021/01/20 01:31:45;;;;;;;53.17;22.50;;;;;;;;;;1737206;82;21184;-81
2021/01/20 01:34:11;;;;;;;62.25;23.32;;;;;;;;;;1736732;82;21168;-81
2021/01/20 01:36:37;;;;;;;56.70;22.42;;;;;;;;;;1742534;82;21147;-80
2021/01/20 01:39:03;;;;;;;54.85;22.55;;;;;;;;;;1740568;82;21555;-80
2021/01/20 01:41:30;;;;;;;50.15;22.20;;;;;;;;;;1742287;82;21626;-81
2021/01/20 01:43:56;;;;;;;46.20;20.90;;;;;;;;;;1742951;82;21131;-81
2021/01/20 01:46:22;;;;;;;50.80;21.62;;;;;;;;;;1715341;82;21640;-82
2021/01/20 01:48:48;;;;;;;49.55;23.02;;;;;;;;;;1720044;82;21112;-79
2021/01/20 01:51:14;;;;;;;50.10;19.77;;;;;;;;;;1742288;82;21151;-80
2021/01/20 01:53:41;;;;;;;52.48;21.50;;;;;;;;;;1742403;82;21188;-81
2021/01/20 01:56:07;;;;;;;50.45;19.07;;;;;;;;;;1742421;82;21646;-81
2021/01/20 01:58:33;;;;;;;47.27;20.23;;;;;;;;;;1742546;82;21369;-81
2021/01/20 02:00:59;;;;;;;45.80;20.23;;;;;;;;;;1734752;82;21129;-80
2021/01/20 02:03:25;;;;;;;47.08;20.25;;;;;;;;;;1711222;83;21172;-81
2021/01/20 02:05:51;;;;;;;52.62;22.20;;;;;;;;;;1711440;82;21189;-82
2021/01/20 02:08:17;;;;;;;53.13;20.65;;;;;;;;;;1725903;82;21139;-80
2021/01/20 02:10:46;;;;;;;44.93;18.02;;;;;;;;;;1742745;82;21127;-82
2021/01/20 02:13:18;;;;;;;44.05;18.98;;;;;;;;;;1742761;82;21140;-82
2021/01/20 02:15:55;;;;;;;50.45;20.60;;;;;;;;;;1742646;82;21120;-82
2021/01/20 02:18:23;;;;;;;51.48;20.50;;;;;;;;;;1742549;82;21128;-80
2021/01/20 02:21:00;;;;;;;47.55;20.92;;;;;;;;;;1742378;82;21147;-79
2021/01/20 02:23:26;;;;;;;53.55;20.62;;;;;;;;;;1742062;82;21571;-80
2021/01/20 02:26:03;;;;;;;40.88;17.32;;;;;;;;;;1713944;82;21167;-79
2021/01/20 02:28:43;;;;;;;50.45;20.57;;;;;;;;;;1723811;82;21131;-79
2021/01/20 02:31:09;;;;;;;47.55;19.48;;;;;;;;;;1742902;82;21196;-79
2021/01/20 02:33:36;;;;;;;39.18;17.73;;;;;;;;;;1742824;82;21619;-79
2021/01/20 02:36:05;;;;;;;42.17;17.73;;;;;;;;;;1767962;81;21155;-79
2021/01/20 02:38:39;;;;;;;41.18;17.65;;;;;;;;;;1768600;81;21124;-80
2021/01/20 02:41:05;;;;;;;40.95;18.80;;;;;;;;;;1764965;81;21192;-82
2021/01/20 02:43:31;;;;;;;42.10;18.80;;;;;;;;;;1767202;81;21119;-84
2021/01/20 02:45:58;;;;;;;37.33;16.48;;;;;;;;;;1758525;81;21104;-80
2021/01/20 02:48:24;;;;;;;54.08;21.15;;;;;;;;;;1755804;81;21104;-80
2021/01/20 02:50:51;;;;;;;43.30;18.98;;;;;;;;;;1721929;81;21152;-80
2021/01/20 02:53:19;;;;;;;45.08;20.23;;;;;;;;;;1742742;81;21137;-82
2021/01/20 02:55:49;;;;;;;53.85;21.62;;;;;;;;;;1739019;82;21168;-82
2021/01/20 02:58:17;;;;;;;42.40;19.00;;;;;;;;;;1763783;81;21152;-81
2021/01/20 03:00:43;;;;;;;44.18;20.00;;;;;;;;;;1769844;81;21148;-80
2021/01/20 03:03:09;;;;;;;50.43;20.50;;;;;;;;;;1761594;81;21160;-80
2021/01/20 03:05:35;;;;;;;49.00;21.25;;;;;;;;;;1739198;82;21583;-83
2021/01/20 03:08:02;;;;;;;59.13;21.57;;;;;;;;;;1739321;82;21132;-82
2021/01/20 03:10:28;;;;;;;42.80;19.02;;;;;;;;;;1739318;82;21140;-82
2021/01/20 03:12:54;;;;;;;45.40;20.68;;;;;;;;;;1739375;82;21196;-82
2021/01/20 03:15:28;;;;;;;46.23;19.67;;;;;;;;;;1744724;81;21190;-82
2021/01/20 03:17:54;;;;;;;50.85;20.55;;;;;;;;;;1769330;81;21137;-83
2021/01/20 03:20:21;;;;;;;52.25;20.37;;;;;;;;;;1770490;81;21164;-85
2021/01/20 03:22:50;;;;;;;53.20;22.85;;;;;;;;;;1769621;81;21580;-82
2021/01/20 03:25:20;;;;;;;44.90;21.93;;;;;;;;;;1768622;81;21123;-82
2021/01/20 03:27:44;;;;;;;50.92;21.65;;;;;;;;;;1769415;81;21160;-82
2021/01/20 03:30:10;;;;;;;53.90;22.65;;;;;;;;;;1747881;81;21469;-84
2021/01/20 03:32:44;;;;;;;50.50;21.80;;;;;;;;;;1739752;81;21142;-84
2021/01/20 03:35:11;;;;;;;51.63;22.27;;;;;;;;;;1754667;81;21215;-83
2021/01/20 03:37:37;;;;;;;59.23;23.57;;;;;;;;;;1765998;81;21168;-84
2021/01/20 03:40:04;;;;;;;54.38;22.45;;;;;;;;;;1765780;81;21148;-82
2021/01/20 03:42:30;;;;;;;49.45;22.42;;;;;;;;;;1765698;81;21160;-81
2021/01/20 03:44:56;;;;;;;49.42;21.62;;;;;;;;;;1759368;81;21167;-84
2021/01/20 03:47:22;;;;;;;50.30;21.77;;;;;;;;;;1742771;82;21168;-82
2021/01/20 03:49:49;;;;;;;60.05;23.62;;;;;;;;;;1742817;82;21180;-82
2021/01/20 03:52:18;;;;;;;55.45;22.73;;;;;;;;;;1743166;82;21596;-85
2021/01/20 03:54:44;;;;;;;47.95;21.48;;;;;;;;;;1743077;82;21742;-85
2021/01/20 03:57:10;;;;;;;51.35;21.87;;;;;;;;;;1733863;82;21290;-85
2021/01/20 03:59:37;;;;;;;53.35;22.77;;;;;;;;;;1735831;83;21155;-85
2021/01/20 04:02:05;;;;;;;57.90;24.45;;;;;;;;;;1731632;82;21180;-81
2021/01/20 04:04:31;;;;;;;51.35;20.50;;;;;;;;;;1733837;81;21175;-80
2021/01/20 04:06:57;;;;;;;54.05;23.75;;;;;;;;;;1742666;82;21163;-81
2021/01/20 04:09:24;;;;;;;46.02;19.77;;;;;;;;;;1717504;82;21591;-79
2021/01/20 04:11:50;;;;;;;46.50;20.70;;;;;;;;;;1742391;82;21195;-81
2021/01/20 04:14:16;;;;;;;44.25;19.92;;;;;;;;;;1742831;82;21183;-80
2021/01/20 04:16:43;;;;;;;50.88;20.20;;;;;;;;;;1740538;81;21207;-80
2021/01/20 04:19:09;;;;;;;42.58;17.02;;;;;;;;;;1742384;82;21314;-81
2021/01/20 04:21:35;;;;;;;50.88;21.02;;;;;;;;;;1742145;82;21152;-81
2021/01/20 04:24:02;;;;;;;48.70;21.25;;;;;;;;;;1742181;82;21112;-80
2021/01/20 04:26:28;;;;;;;32.28;14.30;;;;;;;;;;1739968;82;21660;-81
2021/01/20 04:28:54;;;;;;;43.50;18.17;;;;;;;;;;1742337;82;21160;-82
2021/01/20 04:31:20;;;;;;;46.92;20.25;;;;;;;;;;1742352;82;21211;-81
2021/01/20 04:33:47;;;;;;;51.63;20.72;;;;;;;;;;1742452;82;21156;-81
2021/01/20 04:36:13;;;;;;;50.35;20.25;;;;;;;;;;1740624;81;21153;-81
2021/01/20 04:38:39;;;;;;;48.13;21.73;;;;;;;;;;1752736;81;21140;-80
2021/01/20 04:41:05;;;;;;;49.42;20.72;;;;;;;;;;1769896;81;21288;-81
2021/01/20 04:43:31;;;;;;;46.37;19.75;;;;;;;;;;1754349;81;21632;-80
2021/01/20 04:45:58;;;;;;;53.68;20.82;;;;;;;;;;1745465;81;21126;-82
2021/01/20 04:48:31;;;;;;;52.73;23.55;;;;;;;;;;1739473;82;21141;-81
2021/01/20 04:50:52;;;;;;;42.17;18.00;;;;;;;;;;1738034;82;21197;-82
2021/01/20 04:53:19;;;;;;;40.50;17.85;;;;;;;;;;1740902;81;21153;-79
2021/01/20 04:55:45;;;;;;;50.48;21.60;;;;;;;;;;1739155;82;21186;-82
2021/01/20 04:58:12;;;;;;;47.43;20.25;;;;;;;;;;1739322;82;21679;-82
2021/01/20 05:00:38;;;;;;;46.45;20.52;;;;;;;;;;1739183;82;21130;-81
2021/01/20 05:03:05;;;;;;;40.40;19.95;;;;;;;;;;1739506;82;21157;-80
2021/01/20 05:05:31;;;;;;;48.40;20.92;;;;;;;;;;1740850;81;21147;-80
2021/01/20 05:07:57;;;;;;;46.53;20.40;;;;;;;;;;1756513;81;21171;-82
2021/01/20 05:10:23;;;;;;;47.73;21.25;;;;;;;;;;1769722;81;21579;-82
2021/01/20 05:12:50;;;;;;;45.75;19.48;;;;;;;;;;1769547;81;21226;-82
2021/01/20 05:15:17;;;;;;;50.40;21.68;;;;;;;;;;1765837;81;21528;-80
2021/01/20 05:18:03;;;;;;;47.80;19.85;;;;;;;;;;1767224;81;21158;-79
2021/01/20 05:20:30;;;;;;;48.33;21.05;;;;;;;;;;1769551;81;21136;-82
2021/01/20 05:23:00;;;;;;;43.80;18.40;;;;;;;;;;1769768;81;21560;-81
2021/01/20 05:25:27;;;;;;;42.93;18.65;;;;;;;;;;1755123;81;21264;-81
2021/01/20 05:27:53;;;;;;;48.60;20.48;;;;;;;;;;1739590;81;21168;-82
2021/01/20 05:30:20;;;;;;;57.38;23.70;;;;;;;;;;1739159;82;21201;-81
2021/01/20 05:32:59;;;;;;;42.55;19.00;;;;;;;;;;1740611;81;21592;-82
2021/01/20 05:35:26;;;;;;;49.18;20.05;;;;;;;;;;1739742;81;21221;-81
2021/01/20 05:37:52;;;;;;;41.42;17.70;;;;;;;;;;1739618;81;21124;-81
2021/01/20 05:40:19;;;;;;;47.50;19.37;;;;;;;;;;1740884;81;21136;-81
2021/01/20 05:43:03;;;;;;;41.10;18.48;;;;;;;;;;1751650;81;21156;-81
2021/01/20 05:45:29;;;;;;;46.02;19.17;;;;;;;;;;1744174;81;21152;-83
2021/01/20 05:48:00;;;;;;;42.90;17.75;;;;;;;;;;1769522;81;21152;-82
2021/01/20 05:50:26;;;;;;;43.10;16.90;;;;;;;;;;1762518;81;21173;-83
2021/01/20 05:53:06;;;;;;;46.73;18.15;;;;;;;;;;1753023;81;21159;-83
2021/01/20 05:55:33;;;;;;;47.08;20.45;;;;;;;;;;1749920;81;21156;-81
2021/01/20 05:57:59;;;;;;;44.18;19.02;;;;;;;;;;1739203;82;21186;-77
2021/01/20 06:00:25;;;;;;;43.78;19.60;;;;;;;;;;1739331;82;21157;-79
2021/01/20 06:02:55;;;;;;;36.98;17.50;;;;;;;;;;1739217;82;21176;-78
2021/01/20 06:05:22;;;;;;;47.53;20.02;;;;;;;;;;1755511;81;21132;-77
2021/01/20 06:07:49;;;;;;;42.05;20.20;;;;;;;;;;1769823;81;21187;-77
2021/01/20 06:10:15;;;;;;;40.90;18.85;;;;;;;;;;1769539;81;21759;-77
2021/01/20 06:12:41;;;;;;;52.75;22.90;;;;;;;;;;1769483;81;21160;-78
2021/01/20 06:15:08;;;;;;;49.15;19.40;;;;;;;;;;1768785;81;21093;-78
2021/01/20 06:17:35;;;;;;;42.58;18.85;;;;;;;;;;1769217;81;21128;-78
2021/01/20 06:20:01;;;;;;;46.42;19.25;;;;;;;;;;1769494;81;21612;-80
2021/01/20 06:22:28;;;;;;;42.15;19.07;;;;;;;;;;1769631;81;21184;-84
2021/01/20 06:24:59;;;;;;;42.75;20.82;;;;;;;;;;1765163;81;21125;-81
2021/01/20 06:27:39;;;;;;;41.70;19.17;;;;;;;;;;1746518;81;21525;-81
2021/01/20 06:30:06;;;;;;;43.17;19.80;;;;;;;;;;1755417;81;21557;-78
2021/01/20 06:32:33;;;;;;;44.83;19.65;;;;;;;;;;1745669;81;21535;-84
2021/01/20 06:35:00;;;;;;;44.42;18.73;;;;;;;;;;1762459;81;21110;-81
2021/01/20 06:37:36;;;;;;;46.33;18.55;;;;;;;;;;1754670;81;21171;-79
2021/01/20 06:40:04;;;;;;;45.60;18.98;;;;;;;;;;1757104;81;21141;-80
2021/01/20 06:42:32;;;;;;;44.83;19.40;;;;;;;;;;1749607;81;21156;-84
2021/01/20 06:45:00;;;;;;;45.70;19.30;;;;;;;;;;1741408;81;21171;-80
2021/01/20 06:47:26;;;;;;;38.63;18.20;;;;;;;;;;1746909;81;21188;-83
2021/01/20 06:49:54;;;;;;;43.23;19.82;;;;;;;;;;1747250;81;21149;-80
2021/01/20 06:52:21;;;;;;;45.50;19.60;;;;;;;;;;1742322;81;21140;-84
2021/01/20 06:54:49;;;;;;;43.17;19.25;;;;;;;;;;1757262;81;21133;-81
2021/01/20 06:57:29;;;;;;;47.88;20.10;;;;;;;;;;1759811;81;21207;-81
2021/01/20 07:00:09;;;;;;;48.92;20.40;;;;;;;;;;1759470;81;21136;-78
2021/01/20 07:02:35;;;;;;;40.33;19.10;;;;;;;;;;1762147;81;21802;-79
2021/01/20 07:05:03;;;;;;;40.63;17.95;;;;;;;;;;1763464;81;21178;-79
2021/01/20 07:07:48;;;;;;;35.63;16.40;;;;;;;;;;1748956;81;21584;-79
2021/01/20 07:10:14;;;;;;;39.15;17.17;;;;;;;;;;1749769;81;21160;-79
2021/01/20 07:12:40;;;;;;;48.68;19.75;;;;;;;;;;1748117;81;21129;-77
2021/01/20 07:15:07;;;;;;;49.13;21.02;;;;;;;;;;1723015;81;21162;-79
2021/01/20 07:17:34;;;;;;;40.58;18.15;;;;;;;;;;1735629;83;21157;-79
2021/01/20 07:20:00;;;;;;;47.08;19.92;;;;;;;;;;1739542;81;21206;-78
2021/01/20 07:22:26;;;;;;;46.20;20.75;;;;;;;;;;1744981;81;21322;-79
2021/01/20 07:24:58;;;;;;;44.80;19.12;;;;;;;;;;1751739;81;21170;-83
2021/01/20 07:30:23;;;;;;;43.68;19.42;;;;;;;;;;1715966;81;21136;-81
2021/01/20 07:32:50;;;;;;;46.20;20.60;;;;;;;;;;1733962;81;21170;-81
2021/01/20 07:35:21;;;;;;;46.85;19.40;;;;;;;;;;1749057;81;21235;-80
2021/01/20 07:38:08;;;;;;;47.55;20.57;;;;;;;;;;1755216;81;21174;-82
2021/01/20 07:40:35;;;;;;;46.60;20.00;;;;;;;;;;1761739;81;21533;-80
2021/01/20 07:43:02;;;;;;;46.10;20.50;;;;;;;;;;1759206;81;21537;-79
2021/01/20 07:45:31;;;;;;;46.40;20.32;;;;;;;;;;1762811;81;21160;-79
2021/01/20 07:47:58;;;;;;;39.92;19.32;;;;;;;;;;1755675;81;21176;-79
2021/01/20 07:50:40;;;;;;;46.88;20.62;;;;;;;;;;1763995;81;21576;-77
2021/01/20 07:53:06;;;;;;;38.63;17.37;;;;;;;;;;1764113;81;21161;-78
2021/01/20 07:55:32;;;;;;;41.75;18.55;;;;;;;;;;1740217;81;21139;-80
2021/01/20 07:58:03;;;;;;;38.42;18.10;;;;;;;;;;1748064;81;21145;-80
2021/01/20 08:00:29;;;;;;;42.85;18.90;;;;;;;;;;1757230;81;21198;-79
2021/01/20 08:02:57;;;;;;;45.35;19.62;;;;;;;;;;1754057;81;21163;-76
2021/01/20 08:05:32;;;;;;;45.95;20.48;;;;;;;;;;1755861;81;21261;-81
2021/01/20 08:08:06;;;;;;;40.92;18.23;;;;;;;;;;1763636;81;21146;-81
2021/01/20 08:10:39;;;;;;;42.93;20.95;;;;;;;;;;1755376;81;21144;-81
2021/01/20 08:13:09;;;;;;;41.30;18.00;;;;;;;;;;1722674;81;21182;-82
2021/01/20 08:15:39;;;;;;;45.52;20.55;;;;;;;;;;1759857;81;21145;-79
2021/01/20 08:18:06;;;;;;;39.78;18.60;;;;;;;;;;1758214;81;21132;-83
2021/01/20 08:20:33;;;;;;;41.37;18.98;;;;;;;;;;1759743;81;21157;-79
2021/01/20 08:23:01;;;;;;;37.50;17.82;;;;;;;;;;1730323;81;21138;-80
2021/01/20 08:25:28;;;;;;;45.40;20.15;;;;;;;;;;1762670;81;21159;-79
2021/01/20 08:27:54;;;;;;;44.30;19.85;;;;;;;;;;1765664;81;21136;-79
2021/01/20 08:30:33;;;;;;;43.92;21.17;;;;;;;;;;1755471;81;21136;-79
2021/01/20 08:33:03;;;;;;;39.00;18.42;;;;;;;;;;1754152;81;21177;-79
2021/01/20 08:35:31;;;;;;;40.90;18.70;;;;;;;;;;1757603;81;21162;-79
2021/01/20 08:38:00;;;;;;;42.58;19.35;;;;;;;;;;1756851;81;21109;-79
2021/01/20 08:40:27;;;;;;;40.85;19.07;;;;;;;;;;1755289;81;21141;-79
2021/01/20 08:42:53;;;;;;;37.40;18.65;;;;;;;;;;1763717;81;21173;-78
2021/01/20 08:45:21;;;;;;;42.75;18.42;;;;;;;;;;1734117;81;21117;-80
2021/01/20 08:47:50;;;;;;;43.70;19.07;;;;;;;;;;1748742;81;21132;-78
2021/01/20 08:50:40;;;;;;;33.73;16.97;;;;;;;;;;1763667;81;21131;-79
2021/01/20 08:53:07;;;;;;;48.35;20.35;;;;;;;;;;1760717;81;21156;-78
2021/01/20 08:55:35;;;;;;;37.75;18.55;;;;;;;;;;1752785;81;21189;-78
2021/01/20 08:58:20;;;;;;;43.20;19.48;;;;;;;;;;1749838;81;21152;-82
2021/01/20 09:00:47;;;;;;;42.93;19.85;;;;;;;;;;1766252;81;21113;-80
2021/01/20 09:03:18;;;;;;;49.98;21.00;;;;;;;;;;1756864;81;21161;-83
2021/01/20 09:05:45;;;;;;;60.50;26.82;;;;;;;;;;1759981;81;21161;-82
2021/01/20 09:08:11;;;;;;;56.75;26.68;;;;;;;;;;1754751;81;21170;-82
2021/01/20 09:10:39;;;;;;;53.78;21.97;;;;;;;;;;1737719;81;21136;-83
2021/01/20 09:13:05;;;;;;;48.75;21.73;;;;;;;;;;1747267;81;21135;-83
2021/01/20 09:15:31;;;;;;;45.52;21.50;;;;;;;;;;1747650;81;21179;-77
2021/01/20 09:17:58;;;;;;;45.60;21.97;;;;;;;;;;1745606;81;21140;-82
2021/01/20 09:20:29;;;;;;;46.00;21.60;;;;;;;;;;1745557;81;21096;-80
2021/01/20 09:22:55;;;;;;;55.60;23.10;;;;;;;;;;1751911;81;21161;-81
2021/01/20 09:25:25;;;;;;;49.88;23.55;;;;;;;;;;1762893;81;21167;-84
2021/01/20 09:27:51;;;;;;;50.58;23.20;;;;;;;;;;1763331;81;21152;-78
2021/01/20 09:30:17;;;;;;;55.83;25.48;;;;;;;;;;1737591;81;21801;-83
2021/01/20 09:32:44;;;;;;;53.55;24.40;;;;;;;;;;1737622;81;21104;-82
2021/01/20 09:35:10;;;;;;;51.18;24.20;;;;;;;;;;1742102;81;21117;-81
2021/01/20 09:37:37;;;;;;;56.88;25.48;;;;;;;;;;1765534;81;21132;-84
2021/01/20 09:40:04;;;;;;;49.40;23.35;;;;;;;;;;1761620;81;21132;-79
2021/01/20 09:42:40;;;;;;;47.05;23.25;;;;;;;;;;1757160;81;21136;-79
2021/01/20 09:45:07;;;;;;;49.53;24.47;;;;;;;;;;1735692;83;21294;-77
2021/01/20 09:47:35;;;;;;;50.85;24.85;;;;;;;;;;1752586;81;21125;-84
2021/01/20 09:50:02;;;;;;;49.93;24.87;;;;;;;;;;1750406;81;21167;-79
2021/01/20 09:52:29;;;;;;;55.70;26.12;;;;;;;;;;1738407;81;21184;-80
2021/01/20 09:54:55;;;;;;;51.50;25.25;;;;;;;;;;1737486;81;21151;-77
2021/01/20 09:57:21;;;;;;;56.42;27.32;;;;;;;;;;1735384;81;21144;-78
2021/01/20 09:59:48;;;;;;;65.62;29.48;;;;;;;;;;1735518;83;21599;-79
2021/01/20 10:02:14;;;;;;;67.92;30.37;;;;;;;;;;1735620;83;21288;-80
2021/01/20 10:04:43;;;;;;;64.72;29.40;;;;;;;;;;1741580;81;21144;-83
2021/01/20 10:07:09;;;;;;;62.17;28.90;;;;;;;;;;1750399;81;21120;-81
2021/01/20 10:09:41;;;;;;;57.00;27.98;;;;;;;;;;1748341;81;21185;-81
2021/01/20 10:12:05;;;;;;;55.28;26.93;;;;;;;;;;1744772;81;21595;-80
2021/01/20 10:14:34;;;;;;;58.63;27.55;;;;;;;;;;1735794;83;21171;-80
2021/01/20 10:17:00;;;;;;;65.22;29.50;;;;;;;;;;1741761;81;21214;-80
2021/01/20 10:19:30;;;;;;;57.27;26.95;;;;;;;;;;1758180;81;21128;-80
2021/01/20 10:21:57;;;;;;;59.80;27.20;;;;;;;;;;1742745;81;21520;-80
2021/01/20 10:24:25;;;;;;;57.75;26.77;;;;;;;;;;1741642;81;21615;-82
2021/01/20 10:26:51;;;;;;;54.10;25.65;;;;;;;;;;1738684;81;21155;-76
2021/01/20 10:29:17;;;;;;;68.78;31.40;;;;;;;;;;1758513;81;21152;-79
2021/01/20 10:31:44;;;;;;;50.40;26.05;;;;;;;;;;1750014;81;21136;-79
2021/01/20 10:34:10;;;;;;;50.33;24.50;;;;;;;;;;1765919;81;21131;-81
2021/01/20 10:36:37;;;;;;;54.20;26.73;;;;;;;;;;1738281;81;21625;-81
2021/01/20 10:39:05;;;;;;;54.83;26.20;;;;;;;;;;1720940;81;21096;-80
2021/01/20 10:41:31;;;;;;;52.23;24.60;;;;;;;;;;1720175;82;21101;-86
2021/01/20 10:43:57;;;;;;;50.60;24.27;;;;;;;;;;1729286;82;21166;-77
2021/01/20 10:46:26;;;;;;;54.00;24.52;;;;;;;;;;1736205;81;21137;-83
2021/01/20 10:48:53;;;;;;;55.43;26.35;;;;;;;;;;1731444;82;21171;-78
2021/01/20 10:51:19;;;;;;;49.73;24.02;;;;;;;;;;1722995;82;21120;-83
2021/01/20 10:53:45;;;;;;;51.10;24.32;;;;;;;;;;1721250;82;21209;-75
2021/01/20 10:56:11;;;;;;;58.20;26.37;;;;;;;;;;1730885;82;21134;-78
2021/01/20 10:58:38;;;;;;;47.75;24.05;;;;;;;;;;1734531;82;21120;-79
2021/01/20 11:01:11;;;;;;;54.45;23.92;;;;;;;;;;1732513;81;21122;-80
2021/01/20 11:03:39;;;;;;;53.68;25.50;;;;;;;;;;1738931;82;21107;-79
2021/01/20 11:06:06;;;;;;;46.63;22.45;;;;;;;;;;1732560;82;21142;-79
2021/01/20 11:08:32;;;;;;;49.40;22.20;;;;;;;;;;1714068;82;21163;-80
2021/01/20 11:10:59;;;;;;;48.90;23.65;;;;;;;;;;1728654;82;21135;-79
2021/01/20 11:13:32;;;;;;;57.23;25.85;;;;;;;;;;1734891;81;21121;-81
2021/01/20 11:16:02;;;;;;;50.80;22.50;;;;;;;;;;1732502;81;21191;-81
2021/01/20 11:18:28;;;;;;;64.15;27.87;;;;;;;;;;1728262;81;21160;-82
2021/01/20 11:20:54;;;;;;;58.00;28.92;;;;;;;;;;1731737;81;21191;-81
2021/01/20 11:23:20;;;;;;;53.73;25.82;;;;;;;;;;1733816;81;21127;-80
2021/01/20 11:25:47;;;;;;;53.05;23.75;;;;;;;;;;1732400;81;21152;-81
2021/01/20 11:28:13;;;;;;;64.77;29.37;;;;;;;;;;1726226;81;21110;-80
2021/01/20 11:30:42;;;;;;;59.08;28.07;;;;;;;;;;1731401;81;21151;-79
2021/01/20 11:33:08;;;;;;;54.45;26.93;;;;;;;;;;1731681;81;21155;-80
2021/01/20 11:35:36;;;;;;;63.90;30.68;;;;;;;;;;1727815;82;21155;-78
2021/01/20 11:38:02;;;;;;;68.75;34.27;;;;;;;;;;1744389;81;21629;-82
2021/01/20 11:40:29;;;;;;;70.52;35.15;;;;;;;;;;1741928;81;21125;-76
2021/01/20 11:42:58;;;;;;;79.92;39.95;;;;;;;;;;1737904;81;21184;-75
2021/01/20 11:45:35;;;;;;;70.57;34.10;;;;;;;;;;1741149;81;21168;-84
2021/01/20 11:48:03;;;;;;;145.80;67.00;;;;;;;;;;1738814;81;21163;-77
2021/01/20 11:50:30;;;;;;;99.75;46.75;;;;;;;;;;1736454;81;21177;-76
2021/01/20 11:52:56;;;;;;;92.10;41.15;;;;;;;;;;1742441;81;21176;-81
2021/01/20 11:55:22;;;;;;;59.77;29.25;;;;;;;;;;1739191;81;21547;-76
2021/01/20 11:57:49;;;;;;;61.90;27.37;;;;;;;;;;1739997;81;21168;-81
2021/01/20 12:00:16;;;;;;;55.60;27.48;;;;;;;;;;1738760;81;21162;-81
2021/01/20 12:02:42;;;;;;;68.12;32.53;;;;;;;;;;1745842;81;21141;-76
2021/01/20 12:05:11;;;;;;;97.20;48.98;;;;;;;;;;1740133;81;21163;-83
2021/01/20 12:07:38;;;;;;;74.85;37.45;;;;;;;;;;1761539;80;21113;-82
2021/01/20 12:10:04;;;;;;;71.77;41.13;;;;;;;;;;1817413;78;21290;-82
2021/01/20 12:12:30;;;;;;;56.55;28.55;;;;;;;;;;1795893;79;21121;-76
2021/01/20 12:14:56;;;;;;;60.12;30.95;;;;;;;;;;1787676;79;21125;-79
2021/01/20 12:17:27;;;;;;;67.75;31.70;;;;;;;;;;1791491;79;21140;-77
2021/01/20 12:20:02;;;;;;;57.98;25.77;;;;;;;;;;1802638;78;21129;-80
2021/01/20 12:22:29;;;;;;;53.60;27.05;;;;;;;;;;1794816;79;21556;-76
2021/01/20 12:24:55;;;;;;;57.10;26.55;;;;;;;;;;1787247;79;21149;-78
2021/01/20 12:27:21;;;;;;;65.57;29.35;;;;;;;;;;1786784;79;21121;-74
2021/01/20 12:29:47;;;;;;;62.45;30.17;;;;;;;;;;1791542;79;21145;-74
2021/01/20 12:32:13;;;;;;;59.53;28.70;;;;;;;;;;1791778;79;21124;-74
2021/01/20 12:34:39;;;;;;;60.65;27.80;;;;;;;;;;1802714;79;21101;-74
2021/01/20 12:37:05;;;;;;;107.05;49.00;;;;;;;;;;1798862;79;21196;-74
2021/01/20 12:39:32;;;;;;;70.32;36.38;;;;;;;;;;1797559;78;21144;-76
2021/01/20 12:41:58;;;;;;;95.85;42.78;;;;;;;;;;1799718;78;21568;-75
2021/01/20 12:44:24;;;;;;;108.30;43.20;;;;;;;;;;1807344;78;21097;-76
2021/01/20 12:46:50;;;;;;;56.42;26.23;;;;;;;;;;1795366;80;21108;-76
2021/01/20 12:49:16;;;;;;;54.55;26.77;;;;;;;;;;1795362;80;21120;-76
2021/01/20 12:51:43;;;;;;;58.63;29.67;;;;;;;;;;1795331;80;21121;-75
2021/01/20 12:54:10;;;;;;;65.70;32.13;;;;;;;;;;1796076;78;21581;-75
2021/01/20 12:56:36;;;;;;;65.03;34.67;;;;;;;;;;1795282;80;21152;-74
2021/01/20 12:59:02;;;;;;;57.13;26.68;;;;;;;;;;1795575;78;21153;-74
2021/01/20 13:01:28;;;;;;;55.20;26.60;;;;;;;;;;1806809;78;21592;-75
2021/01/20 13:03:55;;;;;;;39.88;19.35;;;;;;;;;;1795825;78;21109;-75
2021/01/20 13:06:21;;;;;;;59.03;31.27;;;;;;;;;;1808607;78;21545;-74
2021/01/20 13:08:48;;;;;;;69.62;35.43;;;;;;;;;;1828146;78;21275;-74
2021/01/20 13:11:14;;;;;;;64.62;32.15;;;;;;;;;;1803416;78;21113;-75
2021/01/20 13:13:40;;;;;;;63.60;32.35;;;;;;;;;;1795471;80;21156;-74
2021/01/20 13:16:07;;;;;;;58.30;29.48;;;;;;;;;;1802380;78;21545;-75
2021/01/20 13:18:34;;;;;;;56.88;27.80;;;;;;;;;;1797553;78;21129;-76
2021/01/20 13:21:02;;;;;;;61.05;29.12;;;;;;;;;;1815751;78;21093;-76
2021/01/20 13:23:28;;;;;;;64.60;33.48;;;;;;;;;;1810083;78;21149;-76
2021/01/20 13:25:54;;;;;;;61.15;28.32;;;;;;;;;;1795380;80;21587;-75
2021/01/20 13:28:21;;;;;;;61.33;31.25;;;;;;;;;;1806510;78;21174;-76
2021/01/20 13:30:47;;;;;;;58.52;30.80;;;;;;;;;;1799418;78;21536;-75
2021/01/20 13:33:15;;;;;;;62.53;27.60;;;;;;;;;;1796281;78;21145;-76
2021/01/20 13:35:41;;;;;;;66.37;31.23;;;;;;;;;;1809222;78;21116;-76
2021/01/20 13:38:07;;;;;;;62.25;29.10;;;;;;;;;;1795612;80;21152;-76
2021/01/20 13:40:33;;;;;;;64.85;28.75;;;;;;;;;;1795939;80;21124;-75
2021/01/20 13:43:00;;;;;;;63.23;28.87;;;;;;;;;;1795819;80;21541;-76
2021/01/20 13:45:26;;;;;;;62.17;28.40;;;;;;;;;;1796226;80;21267;-76
2021/01/20 13:47:52;;;;;;;74.80;39.13;;;;;;;;;;1795806;80;21165;-76
2021/01/20 13:50:18;;;;;;;84.25;38.63;;;;;;;;;;1795998;80;21133;-76
2021/01/20 13:52:44;;;;;;;69.37;33.85;;;;;;;;;;1814739;78;21571;-75
2021/01/20 13:55:10;;;;;;;74.12;31.55;;;;;;;;;;1799833;78;21144;-75
2021/01/20 13:57:37;;;;;;;59.45;28.10;;;;;;;;;;1801863;78;21118;-76
2021/01/20 14:00:04;;;;;;;60.43;28.23;;;;;;;;;;1799124;78;21121;-76
2021/01/20 14:02:30;;;;;;;57.05;26.55;;;;;;;;;;1802295;78;21172;-75
2021/01/20 14:04:56;;;;;;;60.88;27.73;;;;;;;;;;1795796;80;21130;-75
2021/01/20 14:07:23;;;;;;;60.23;29.18;;;;;;;;;;1797398;78;21129;-75
2021/01/20 14:09:56;;;;;;;60.43;27.02;;;;;;;;;;1828554;78;21122;-77
2021/01/20 14:12:28;;;;;;;56.50;27.55;;;;;;;;;;1813297;78;21128;-75
2021/01/20 14:14:55;;;;;;;84.15;40.03;;;;;;;;;;1809378;78;21108;-76
2021/01/20 14:17:21;;;;;;;62.80;30.57;;;;;;;;;;1802622;78;21585;-75
2021/01/20 14:19:47;;;;;;;66.62;31.80;;;;;;;;;;1796163;80;21298;-75
2021/01/20 14:22:14;;;;;;;58.60;28.17;;;;;;;;;;1802677;78;21187;-75